createdAt,value
2023-05-25T00:01:24.406Z,6.43
2023-05-25T00:03:52.613Z,5.82
2023-05-25T00:06:20.034Z,5.30
2023-05-25T00:08:47.919Z,5.57
2023-05-25T00:11:17.054Z,6.13
2023-05-25T00:13:44.301Z,6.05
2023-05-25T00:16:11.417Z,5.28
2023-05-25T00:18:38.735Z,5.05
2023-05-25T00:21:06.865Z,5.22
2023-05-25T00:23:34.080Z,5.45
2023-05-25T00:26:03.118Z,4.90
2023-05-25T00:28:30.325Z,5.40
2023-05-25T00:30:57.586Z,5.63
2023-05-25T00:33:24.902Z,5.78
2023-05-25T00:35:54.084Z,5.00
2023-05-25T00:38:21.810Z,4.95
2023-05-25T00:40:49.093Z,5.03
2023-05-25T00:43:16.657Z,5.38
2023-05-25T00:45:43.972Z,5.45
2023-05-25T00:48:11.411Z,5.32
2023-05-25T00:50:42.962Z,5.95
2023-05-25T00:53:11.649Z,4.88
2023-05-25T00:55:44.727Z,6.22
2023-05-25T00:58:14.485Z,5.15
2023-05-25T01:00:42.926Z,4.85
2023-05-25T01:03:13.026Z,5.47
2023-05-25T01:05:45.060Z,5.82
2023-05-25T01:08:14.421Z,5.03
2023-05-25T01:10:42.978Z,5.07
2023-05-25T01:13:10.670Z,5.18
2023-05-25T01:15:38.508Z,5.80
2023-05-25T01:18:05.989Z,5.03
2023-05-25T01:20:33.644Z,6.28
2023-05-25T01:23:12.058Z,5.40
2023-05-25T01:26:00.160Z,5.53
2023-05-25T01:28:40.287Z,5.32
2023-05-25T01:31:08.894Z,5.90
2023-05-25T01:33:36.704Z,5.38
2023-05-25T01:36:04.685Z,4.80
2023-05-25T01:38:32.076Z,5.13
2023-05-25T01:41:00.405Z,5.40
2023-05-25T01:43:27.636Z,5.18
2023-05-25T01:46:36.250Z,5.57
2023-05-25T01:49:09.527Z,5.10
2023-05-25T01:52:01.479Z,5.32
2023-05-25T01:54:52.600Z,5.65
2023-05-25T01:57:20.900Z,5.43
2023-05-25T01:59:49.699Z,5.03
2023-05-25T02:02:20.104Z,5.30
2023-05-25T02:04:47.633Z,5.10
2023-05-25T02:07:15.004Z,6.03
2023-05-25T02:09:42.187Z,5.43
2023-05-25T02:12:09.866Z,4.57
2023-05-25T02:14:37.097Z,6.45
2023-05-25T02:17:04.562Z,5.53
2023-05-25T02:19:31.774Z,6.57
2023-05-25T02:21:59.053Z,5.45
2023-05-25T02:24:26.569Z,5.50
2023-05-25T02:26:53.787Z,6.93
2023-05-25T02:29:21.102Z,5.68
2023-05-25T02:31:48.475Z,5.78
2023-05-25T02:34:15.759Z,5.70
2023-05-25T02:36:44.928Z,6.20
2023-05-25T02:39:12.179Z,5.90
2023-05-25T02:41:39.516Z,5.82
2023-05-25T02:44:06.740Z,5.90
2023-05-25T02:46:34.163Z,7.10
2023-05-25T02:49:01.649Z,7.65
2023-05-25T02:51:29.263Z,7.18
2023-05-25T02:53:56.624Z,5.97
2023-05-25T02:56:23.863Z,6.00
2023-05-25T02:58:51.268Z,6.53
2023-05-25T03:01:19.015Z,6.25
2023-05-25T03:03:47.350Z,4.88
2023-05-25T03:06:14.780Z,6.95
2023-05-25T03:08:41.913Z,6.43
2023-05-25T03:11:09.121Z,6.22
2023-05-25T03:13:36.328Z,6.70
2023-05-25T03:16:03.522Z,6.20
2023-05-25T03:18:30.894Z,6.13
2023-05-25T03:20:58.078Z,6.32
2023-05-25T03:23:25.425Z,6.38
2023-05-25T03:25:52.604Z,7.18
2023-05-25T03:28:20.897Z,6.22
2023-05-25T03:30:48.071Z,7.63
2023-05-25T03:33:15.315Z,6.22
2023-05-25T03:35:42.843Z,6.60
2023-05-25T03:38:10.506Z,6.82
2023-05-25T03:40:37.713Z,6.38
2023-05-25T03:43:04.976Z,7.55
2023-05-25T03:45:32.242Z,8.10
2023-05-25T03:47:59.497Z,7.28
2023-05-25T03:50:26.702Z,7.18
2023-05-25T03:52:53.970Z,7.03
2023-05-25T03:55:21.190Z,7.10
2023-05-25T03:57:48.417Z,7.68
2023-05-25T04:00:16.974Z,7.63
2023-05-25T04:02:44.368Z,7.55
2023-05-25T04:05:11.698Z,7.88
2023-05-25T04:07:38.910Z,7.43
2023-05-25T04:10:07.266Z,7.65
2023-05-25T04:12:34.566Z,8.10
2023-05-25T04:15:03.923Z,6.78
2023-05-25T04:17:31.569Z,6.90
2023-05-25T04:19:58.932Z,8.13
2023-05-25T04:22:26.118Z,7.47
2023-05-25T04:24:54.052Z,8.30
2023-05-25T04:27:22.207Z,7.97
2023-05-25T04:29:50.275Z,8.15
2023-05-25T04:32:18.655Z,7.22
2023-05-25T04:34:46.757Z,10.05
2023-05-25T04:37:14.189Z,8.10
2023-05-25T04:39:41.425Z,7.57
2023-05-25T04:42:08.820Z,10.02
2023-05-25T04:44:36.166Z,9.93
2023-05-25T04:47:03.386Z,8.88
2023-05-25T04:49:31.330Z,8.75
2023-05-25T04:51:58.885Z,9.73
2023-05-25T04:54:26.010Z,9.13
2023-05-25T04:56:53.438Z,9.30
2023-05-25T04:59:20.922Z,10.55
2023-05-25T05:01:48.419Z,8.85
2023-05-25T05:04:16.539Z,9.38
2023-05-25T05:06:44.291Z,8.82
2023-05-25T05:09:11.937Z,8.32
2023-05-25T05:11:39.216Z,10.23
2023-05-25T05:14:06.469Z,9.00
2023-05-25T05:16:35.088Z,9.48
2023-05-25T05:19:02.532Z,10.13
2023-05-25T05:21:29.867Z,9.88
2023-05-25T05:23:57.178Z,9.52
2023-05-25T05:26:24.521Z,8.20
2023-05-25T05:28:52.630Z,9.02
2023-05-25T05:31:20.005Z,7.80
2023-05-25T05:33:47.405Z,8.98
2023-05-25T05:36:14.713Z,9.23
2023-05-25T05:38:42.546Z,9.55
2023-05-25T05:41:13.801Z,9.30
2023-05-25T05:43:42.847Z,8.40
2023-05-25T05:46:13.421Z,10.30
2023-05-25T05:48:41.401Z,9.93
2023-05-25T05:51:11.598Z,8.90
2023-05-25T05:53:38.866Z,9.35
2023-05-25T05:56:07.047Z,9.75
2023-05-25T05:58:34.299Z,9.23
2023-05-25T06:01:02.215Z,10.20
2023-05-25T06:03:29.451Z,9.48
2023-05-25T06:05:56.724Z,8.32
2023-05-25T06:08:24.055Z,9.77
2023-05-25T06:10:51.277Z,10.05
2023-05-25T06:13:18.471Z,8.93
2023-05-25T06:15:45.853Z,9.10
2023-05-25T06:18:14.368Z,8.90
2023-05-25T06:20:41.896Z,9.27
2023-05-25T06:23:11.461Z,9.55
2023-05-25T06:25:38.596Z,9.20
2023-05-25T06:28:05.757Z,7.85
2023-05-25T06:30:33.033Z,8.38
2023-05-25T06:33:00.407Z,8.63
2023-05-25T06:35:29.410Z,7.85
2023-05-25T06:37:56.724Z,7.18
2023-05-25T06:40:23.874Z,6.75
2023-05-25T06:42:51.087Z,7.22
2023-05-25T06:45:18.283Z,7.30
2023-05-25T06:47:45.576Z,7.55
2023-05-25T06:50:13.613Z,7.55
2023-05-25T06:52:40.810Z,6.63
2023-05-25T06:55:08.836Z,7.57
2023-05-25T06:57:36.210Z,7.60
2023-05-25T07:00:04.798Z,6.13
2023-05-25T07:02:32.023Z,6.82
2023-05-25T07:04:59.315Z,7.05
2023-05-25T07:07:26.733Z,6.40
2023-05-25T07:09:53.917Z,6.22
2023-05-25T07:12:21.492Z,7.45
2023-05-25T07:14:48.787Z,5.75
2023-05-25T07:17:16.180Z,4.72
2023-05-25T07:19:43.522Z,5.90
2023-05-25T07:22:10.977Z,5.95
2023-05-25T07:24:38.289Z,6.22
2023-05-25T07:27:06.852Z,6.18
2023-05-25T07:29:34.113Z,6.10
2023-05-25T07:32:01.337Z,5.47
2023-05-25T07:34:28.492Z,4.60
2023-05-25T07:36:55.716Z,4.05
2023-05-25T07:39:22.878Z,4.00
2023-05-25T07:41:50.072Z,3.92
2023-05-25T07:44:17.423Z,3.40
2023-05-25T07:46:44.652Z,3.67
2023-05-25T07:49:15.926Z,3.83
2023-05-25T07:51:44.789Z,3.92
2023-05-25T07:54:12.162Z,3.72
2023-05-25T07:56:39.502Z,3.92
2023-05-25T07:59:06.732Z,4.20
2023-05-25T08:01:33.943Z,4.18
2023-05-25T08:04:01.241Z,3.78
2023-05-25T08:06:28.526Z,3.50
2023-05-25T08:08:55.827Z,4.05
2023-05-25T08:11:26.319Z,3.83
2023-05-25T08:13:53.587Z,4.18
2023-05-25T08:16:20.919Z,3.13
2023-05-25T08:18:48.197Z,3.42
2023-05-25T08:21:15.518Z,3.25
2023-05-25T08:23:42.889Z,3.67
2023-05-25T08:26:29.031Z,4.80
2023-05-25T08:28:58.524Z,3.20
2023-05-25T08:31:25.857Z,3.40
2023-05-25T08:33:53.088Z,3.35
2023-05-25T08:36:20.274Z,3.20
2023-05-25T08:38:47.447Z,3.65
2023-05-25T08:41:14.817Z,4.43
2023-05-25T08:43:42.492Z,3.15
2023-05-25T08:46:09.741Z,4.03
2023-05-25T08:48:42.196Z,3.58
2023-05-25T08:51:11.641Z,4.55
2023-05-25T08:53:41.168Z,3.50
2023-05-25T08:56:18.443Z,3.53
2023-05-25T08:58:54.252Z,3.70
2023-05-25T09:01:22.221Z,3.70
2023-05-25T09:03:50.230Z,3.95
2023-05-25T09:06:17.647Z,4.15
2023-05-25T09:08:45.279Z,4.97
2023-05-25T09:11:16.558Z,4.32
2023-05-25T09:13:44.715Z,4.10
2023-05-25T09:16:11.941Z,5.57
2023-05-25T09:18:40.121Z,4.78
2023-05-25T09:21:07.318Z,4.07
2023-05-25T09:23:35.379Z,3.72
2023-05-25T09:26:02.628Z,3.67
2023-05-25T09:28:29.773Z,3.55
2023-05-25T09:30:57.046Z,3.47
2023-05-25T09:33:24.327Z,4.22
2023-05-25T09:35:51.633Z,3.58
2023-05-25T09:38:19.311Z,3.63
2023-05-25T09:40:46.949Z,4.80
2023-05-25T09:43:24.921Z,3.88
2023-05-25T09:46:00.080Z,3.70
2023-05-25T09:48:29.344Z,3.80
2023-05-25T09:50:56.832Z,4.18
2023-05-25T09:53:24.149Z,4.35
2023-05-25T09:55:54.144Z,5.57
2023-05-25T09:58:27.369Z,4.28
2023-05-25T10:00:55.222Z,4.57
2023-05-25T10:03:22.723Z,5.30
2023-05-25T10:05:50.450Z,4.70
2023-05-25T10:08:20.190Z,4.70
2023-05-25T10:10:49.963Z,4.35
2023-05-25T10:13:22.009Z,4.32
2023-05-25T10:15:53.093Z,4.78
2023-05-25T10:18:25.657Z,5.00
2023-05-25T10:21:02.481Z,4.03
2023-05-25T10:23:41.936Z,3.88
2023-05-25T10:26:10.114Z,4.20
2023-05-25T10:28:39.698Z,3.70
2023-05-25T10:31:07.290Z,4.03
2023-05-25T10:33:34.940Z,3.17
2023-05-25T10:36:10.594Z,3.25
2023-05-25T10:38:40.287Z,4.03
2023-05-25T10:41:09.821Z,3.70
2023-05-25T10:43:40.925Z,3.80
2023-05-25T10:46:08.638Z,4.05
2023-05-25T10:48:37.324Z,4.30
2023-05-25T10:51:04.664Z,4.50
2023-05-25T10:53:31.887Z,3.80
2023-05-25T10:56:03.850Z,3.97
2023-05-25T10:58:31.898Z,4.03
2023-05-25T11:01:03.381Z,3.45
2023-05-25T11:04:10.055Z,4.28
2023-05-25T11:06:37.638Z,3.97
2023-05-25T11:09:06.575Z,4.15
2023-05-25T11:11:58.785Z,4.15
2023-05-25T11:14:42.254Z,3.55
2023-05-25T11:17:11.689Z,3.33
2023-05-25T11:20:02.208Z,3.95
2023-05-25T11:22:37.404Z,3.97
2023-05-25T11:27:54.293Z,3.88
2023-05-25T11:30:28.003Z,3.75
2023-05-25T11:32:59.504Z,3.25
2023-05-25T11:35:26.905Z,3.90
2023-05-25T11:37:55.062Z,4.57
2023-05-25T11:40:25.599Z,3.85
2023-05-25T11:42:52.876Z,3.85
2023-05-25T11:45:22.370Z,3.05
2023-05-25T11:47:49.607Z,4.07
2023-05-25T11:50:17.282Z,3.97
2023-05-25T11:52:44.471Z,4.07
2023-05-25T11:55:15.822Z,3.90
2023-05-25T11:57:43.181Z,3.28
2023-05-25T12:00:11.441Z,3.15
2023-05-25T12:02:39.817Z,4.10
2023-05-25T12:05:09.478Z,3.20
2023-05-25T12:07:43.745Z,4.15
2023-05-25T12:10:12.586Z,3.38
2023-05-25T12:12:44.182Z,3.90
2023-05-25T12:15:13.757Z,3.95
2023-05-25T12:17:42.742Z,3.60
2023-05-25T12:20:12.030Z,3.25
2023-05-25T12:22:39.837Z,3.55
2023-05-25T12:25:08.228Z,4.53
2023-05-25T12:27:35.757Z,3.60
2023-05-25T12:30:04.669Z,3.42
2023-05-25T12:32:31.970Z,3.83
2023-05-25T12:35:06.533Z,3.90
2023-05-25T12:37:34.366Z,4.30
2023-05-25T12:40:01.630Z,5.13
2023-05-25T12:42:31.220Z,4.63
2023-05-25T12:45:00.756Z,4.80
2023-05-25T12:47:30.121Z,4.50
2023-05-25T12:50:14.001Z,4.63
2023-05-25T12:52:43.035Z,4.97
2023-05-25T12:55:26.101Z,5.05
2023-05-25T12:57:58.230Z,4.35
2023-05-25T13:00:32.188Z,4.10
2023-05-25T13:03:00.125Z,4.63
2023-05-25T13:05:29.173Z,5.38
2023-05-25T13:07:57.727Z,5.15
2023-05-25T13:10:25.859Z,4.38
2023-05-25T13:12:53.911Z,4.60
2023-05-25T13:15:21.724Z,4.65
2023-05-25T13:17:50.572Z,4.10
2023-05-25T13:20:22.556Z,4.78
2023-05-25T13:22:51.042Z,4.72
2023-05-25T13:25:19.016Z,4.38
2023-05-25T13:27:51.237Z,5.53
2023-05-25T13:30:18.825Z,4.45
2023-05-25T13:32:47.020Z,4.45
2023-05-25T13:35:36.955Z,4.25
2023-05-25T13:38:04.253Z,3.80
2023-05-25T13:40:31.469Z,4.03
2023-05-25T13:42:58.633Z,3.45
2023-05-25T13:45:25.897Z,3.65
2023-05-25T13:47:53.166Z,3.42
2023-05-25T13:50:20.468Z,3.55
2023-05-25T13:52:48.997Z,3.63
2023-05-25T13:55:16.417Z,3.20
2023-05-25T13:57:43.564Z,4.30
2023-05-25T14:00:11.091Z,3.97
2023-05-25T14:02:38.384Z,4.47
2023-05-25T14:05:05.915Z,5.55
2023-05-25T14:07:33.205Z,3.60
2023-05-25T14:10:00.703Z,4.25
2023-05-25T14:12:27.968Z,4.07
2023-05-25T14:14:55.773Z,3.83
2023-05-25T14:17:24.829Z,4.63
2023-05-25T14:19:52.366Z,3.95
2023-05-25T14:22:19.628Z,5.10
2023-05-25T14:24:46.792Z,4.30
2023-05-25T14:27:16.099Z,3.78
2023-05-25T14:29:43.341Z,4.20
2023-05-25T14:32:10.848Z,4.40
2023-05-25T14:34:38.054Z,4.78
2023-05-25T14:37:05.410Z,4.03
2023-05-25T14:39:32.613Z,4.13
2023-05-25T14:41:59.953Z,4.00
2023-05-25T14:44:27.289Z,4.63
2023-05-25T14:46:54.986Z,3.90
2023-05-25T14:49:25.125Z,4.63
2023-05-25T14:51:54.003Z,4.32
2023-05-25T14:54:21.298Z,4.82
2023-05-25T14:56:48.529Z,5.70
2023-05-25T14:59:15.868Z,5.13
2023-05-25T15:01:43.164Z,5.07
2023-05-25T15:04:10.685Z,4.80
2023-05-25T15:06:39.395Z,4.65
2023-05-25T15:09:06.925Z,5.30
2023-05-25T15:11:34.139Z,4.55
2023-05-25T15:14:01.498Z,6.95
2023-05-25T15:16:28.753Z,5.93
2023-05-25T15:18:56.121Z,6.25
2023-05-25T15:21:23.391Z,5.50
2023-05-25T15:23:50.962Z,5.90
2023-05-25T15:26:18.168Z,5.30
2023-05-25T15:28:45.352Z,6.47
2023-05-25T15:31:12.713Z,6.10
2023-05-25T15:33:53.842Z,6.47
2023-05-25T15:36:25.467Z,5.55
2023-05-25T15:38:52.719Z,5.60
2023-05-25T15:41:19.937Z,4.78
2023-05-25T15:43:57.964Z,5.35
2023-05-25T15:46:25.865Z,4.40
2023-05-25T15:48:54.088Z,4.00
2023-05-25T15:51:21.577Z,4.28
2023-05-25T15:53:48.892Z,4.28
2023-05-25T15:56:16.077Z,3.83
2023-05-25T15:58:47.024Z,4.30
2023-05-25T16:01:14.507Z,4.20
2023-05-25T16:03:49.859Z,4.35
2023-05-25T16:06:17.480Z,3.90
2023-05-25T16:08:44.771Z,3.90
2023-05-25T16:11:12.056Z,4.32
2023-05-25T16:13:39.195Z,4.35
2023-05-25T16:16:06.976Z,4.45
2023-05-25T16:18:34.247Z,4.93
2023-05-25T16:21:01.774Z,4.53
2023-05-25T16:23:28.983Z,4.47
2023-05-25T16:25:56.164Z,4.32
2023-05-25T16:28:23.433Z,4.20
2023-05-25T16:30:50.770Z,4.22
2023-05-25T16:33:17.930Z,3.60
2023-05-25T16:35:45.669Z,3.47
2023-05-25T16:38:13.047Z,4.45
2023-05-25T16:40:40.177Z,3.70
2023-05-25T16:43:07.460Z,4.22
2023-05-25T16:45:34.727Z,3.53
2023-05-25T16:48:02.022Z,3.88
2023-05-25T16:50:29.262Z,4.30
2023-05-25T16:52:57.053Z,3.80
2023-05-25T16:55:24.341Z,3.20
2023-05-25T16:57:51.524Z,4.50
2023-05-25T17:00:18.769Z,3.58
2023-05-25T17:02:46.030Z,3.90
2023-05-25T17:05:13.250Z,4.05
2023-05-25T17:07:40.915Z,3.85
2023-05-25T17:10:08.803Z,3.80
2023-05-25T17:12:36.403Z,4.35
2023-05-25T17:15:03.855Z,4.07
2023-05-25T17:17:31.194Z,4.38
2023-05-25T17:19:58.873Z,4.30
2023-05-25T17:22:26.137Z,4.40
2023-05-25T17:24:53.349Z,5.03
2023-05-25T17:27:20.532Z,4.63
2023-05-25T17:29:47.786Z,4.00
2023-05-25T17:32:15.038Z,3.95
2023-05-25T17:34:42.250Z,4.63
2023-05-25T17:37:09.510Z,4.43
2023-05-25T17:39:36.784Z,4.47
2023-05-25T17:42:04.325Z,4.45
2023-05-25T17:44:31.470Z,4.28
2023-05-25T17:46:58.691Z,4.50
2023-05-25T17:49:25.833Z,3.90
2023-05-25T17:51:53.260Z,4.38
2023-05-25T17:54:25.334Z,4.50
2023-05-25T17:56:52.721Z,5.38
2023-05-25T17:59:19.862Z,5.07
2023-05-25T18:01:47.250Z,4.80
2023-05-25T18:04:14.579Z,3.80
2023-05-25T18:06:41.969Z,4.07
2023-05-25T18:09:09.154Z,4.55
2023-05-25T18:11:36.670Z,4.45
2023-05-25T18:14:07.774Z,3.88
2023-05-25T18:16:39.550Z,4.13
2023-05-25T18:19:09.234Z,4.57
2023-05-25T18:21:40.203Z,3.53
2023-05-25T18:24:08.401Z,4.15
2023-05-25T18:26:36.141Z,3.90
2023-05-25T18:29:03.519Z,4.07
2023-05-25T18:31:32.115Z,4.32
2023-05-25T18:34:00.300Z,3.55
2023-05-25T18:36:27.598Z,3.30
2023-05-25T18:38:54.812Z,3.53
2023-05-25T18:41:24.192Z,3.75
2023-05-25T18:43:51.584Z,3.42
2023-05-25T18:46:18.993Z,3.55
2023-05-25T18:48:46.478Z,3.38
2023-05-25T18:51:15.421Z,4.25
2023-05-25T18:53:42.986Z,4.00
2023-05-25T18:56:10.331Z,4.38
2023-05-25T18:58:37.662Z,3.50
2023-05-25T19:01:05.029Z,3.40
2023-05-25T19:03:32.419Z,4.30
2023-05-25T19:05:59.677Z,4.07
2023-05-25T19:08:26.831Z,3.95
2023-05-25T19:10:54.081Z,3.55
2023-05-25T19:13:22.854Z,4.20
2023-05-25T19:15:50.870Z,3.67
2023-05-25T19:18:18.303Z,3.63
2023-05-25T19:20:46.055Z,3.50
2023-05-25T19:23:13.654Z,4.03
2023-05-25T19:25:40.866Z,4.10
2023-05-25T19:28:08.179Z,4.03
2023-05-25T19:30:35.473Z,4.70
2023-05-25T19:33:02.766Z,3.80
2023-05-25T19:35:30.036Z,4.70
2023-05-25T19:37:57.997Z,3.90
2023-05-25T19:40:26.484Z,3.88
2023-05-25T19:42:53.693Z,3.70
2023-05-25T19:45:21.129Z,3.72
2023-05-25T19:47:48.530Z,3.58
2023-05-25T19:50:16.432Z,4.45
2023-05-25T19:52:43.871Z,4.20
2023-05-25T19:55:11.317Z,4.00
2023-05-25T19:57:38.687Z,3.75
2023-05-25T20:00:11.620Z,4.18
2023-05-25T20:02:52.638Z,4.18
2023-05-25T20:05:21.441Z,4.38
2023-05-25T20:07:50.774Z,4.40
2023-05-25T20:10:18.278Z,4.47
2023-05-25T20:12:45.490Z,4.32
2023-05-25T20:15:12.761Z,3.67
2023-05-25T20:17:40.101Z,3.83
2023-05-25T20:20:07.643Z,3.63
2023-05-25T20:22:34.847Z,4.03
2023-05-25T20:25:02.264Z,4.30
2023-05-25T20:27:29.415Z,4.25
2023-05-25T20:29:56.804Z,4.10
2023-05-25T20:32:24.142Z,3.97
2023-05-25T20:34:51.384Z,4.03
2023-05-25T20:37:18.641Z,3.90
2023-05-25T20:39:45.868Z,4.20
2023-05-25T20:42:14.057Z,3.70
2023-05-25T20:44:41.371Z,4.47
2023-05-25T20:47:08.659Z,4.25
2023-05-25T20:49:35.895Z,4.55
2023-05-25T20:52:03.337Z,3.70
2023-05-25T20:54:30.620Z,4.43
2023-05-25T20:56:57.898Z,4.00
2023-05-25T20:59:25.215Z,4.70
2023-05-25T21:01:52.691Z,4.43
2023-05-25T21:04:20.073Z,4.22
2023-05-25T21:06:47.277Z,4.10
2023-05-25T21:09:14.590Z,5.15
2023-05-25T21:11:41.829Z,4.53
2023-05-25T21:14:09.078Z,4.72
2023-05-25T21:16:36.372Z,4.85
2023-05-25T21:19:03.615Z,4.75
2023-05-25T21:21:33.918Z,4.78
2023-05-25T21:24:01.820Z,4.18
2023-05-25T21:26:30.983Z,4.38
2023-05-25T21:28:58.464Z,4.50
2023-05-25T21:31:25.838Z,3.58
2023-05-25T21:33:53.239Z,4.63
2023-05-25T21:36:20.803Z,4.68
2023-05-25T21:38:48.029Z,4.72
2023-05-25T21:41:15.277Z,3.90
2023-05-25T21:43:42.471Z,3.90
2023-05-25T21:46:09.722Z,5.00
2023-05-25T21:48:36.939Z,5.03
2023-05-25T21:51:04.309Z,4.18
2023-05-25T21:53:31.519Z,4.63
2023-05-25T21:55:58.752Z,4.32
2023-05-25T21:58:26.107Z,5.15
2023-05-25T22:00:53.451Z,4.85
2023-05-25T22:03:20.732Z,5.80
2023-05-25T22:05:48.307Z,4.80
2023-05-25T22:08:15.595Z,5.05
2023-05-25T22:10:42.822Z,4.20
2023-05-25T22:13:10.102Z,4.50
2023-05-25T22:15:37.292Z,5.03
2023-05-25T22:18:05.924Z,5.05
2023-05-25T22:20:33.422Z,5.75
2023-05-25T22:23:01.084Z,4.28
2023-05-25T22:25:28.202Z,5.28
2023-05-25T22:27:55.924Z,4.55
2023-05-25T22:30:23.113Z,4.50
2023-05-25T22:32:50.529Z,5.35
2023-05-25T22:35:17.700Z,6.03
2023-05-25T22:37:44.975Z,4.95
2023-05-25T22:40:12.616Z,5.07
2023-05-25T22:42:40.269Z,4.53
2023-05-25T22:45:08.070Z,5.35
2023-05-25T22:47:35.722Z,5.82
2023-05-25T22:50:02.982Z,4.65
2023-05-25T22:52:30.353Z,5.20
2023-05-25T22:54:57.552Z,5.07
2023-05-25T22:57:24.840Z,5.00
2023-05-25T22:59:52.002Z,5.95
2023-05-25T23:02:19.258Z,5.07
2023-05-25T23:04:46.505Z,5.18
2023-05-25T23:07:13.849Z,4.55
2023-05-25T23:09:41.255Z,5.72
2023-05-25T23:12:08.563Z,5.78
2023-05-25T23:14:35.723Z,5.18
2023-05-25T23:17:02.937Z,4.85
2023-05-25T23:23:36.115Z,4.82
2023-05-25T23:26:03.717Z,5.30
2023-05-25T23:28:31.181Z,5.82
2023-05-25T23:30:58.414Z,5.20
2023-05-25T23:33:25.636Z,6.50
2023-05-25T23:35:52.830Z,5.72
2023-05-25T23:38:20.127Z,6.10
2023-05-25T23:40:47.401Z,5.95
2023-05-25T23:43:14.665Z,5.50
2023-05-25T23:45:42.080Z,5.45
2023-05-25T23:48:09.341Z,4.93
2023-05-25T23:50:36.611Z,5.35
2023-05-25T23:53:03.805Z,5.25
2023-05-25T23:55:31.118Z,5.40
2023-05-25T23:57:58.315Z,5.28
